ADDS METAR Data INFO
IDs: Format: Raw Decoded Include TAF

Data at: 0315 UTC 22 Apr 2018

EGPH 220250Z 13001KT 6000 OVC034 09/08 Q1005
EGPH 220220Z VRB01KT 5000 BR OVC032 09/08 Q1006
EGPH 220150Z 00000KT 5000 BR OVC034CB 09/08 Q1006
EGPH 220120Z VRB03KT 6000 BKN039CB 07/07 Q1007
EGPH 220050Z 33001KT 6000 SCT031 07/06 Q1007
EGPH 220020Z 27002KT 8000 SCT031 07/06 Q1007
EGPH 212350Z VRB03KT 8000 NSC 09/08 Q1008
EGPH 212320Z VRB02KT 9999 SCT038 09/08 Q1008
EGPH 212250Z VRB02KT CAVOK 08/07 Q1009
EGPH 212220Z VRB02KT 9000 NSC 08/07 Q1009
EGPH 212150Z 06002KT CAVOK 08/07 Q1009
EGPH 212120Z 03002KT CAVOK 08/07 Q1010
EGPH 212050Z 05004KT CAVOK 07/06 Q1010
EGPH 212020Z 04005KT CAVOK 07/06 Q1011
EGPH 211950Z 06004KT CAVOK 07/06 Q1011
EGPH 211820Z 06008KT CAVOK 12/07 Q1012
EGPH 211750Z 07008KT CAVOK 15/06 Q1013
EGPH 211650Z 05009KT CAVOK 15/06 Q1014
EGPH 211620Z 05010KT CAVOK 16/06 Q1014
EGPH 211550Z 04009KT CAVOK 15/07 Q1015
EGPH 211520Z 05011KT CAVOK 15/07 Q1015
EGPH 211450Z 05010KT CAVOK 15/07 Q1016
EGPH 211420Z 05010KT CAVOK 15/07 Q1016
EGPH 211350Z 05008KT 010V090 9999 FEW019 16/07 Q1017
EGPH 211320Z 17005KT 120V270 CAVOK 18/05 Q1017
EGPH 211250Z 20009KT 170V260 9999 SCT044 18/05 Q1018
EGPH 211220Z 21009KT 180V250 9999 SCT044 17/06 Q1018
EGPH 211150Z 25009KT 210V310 9999 SCT042 16/07 Q1019
EGPH 211120Z 22011KT 9999 SCT041 16/06 Q1019
EGPH 211050Z 20009KT 9999 SCT038 15/06 Q1019
EGPH 211020Z VRB06KT 9999 SCT032 15/07 Q1020
EGPH 210950Z 05005KT 360V080 9999 FEW032 13/07 Q1020
EGPH 210920Z 03005KT 360V060 CAVOK 12/07 Q1021
EGPH 210850Z 02004KT CAVOK 12/07 Q1021
EGPH 210820Z VRB02KT CAVOK 11/06 Q1021
EGPH 210750Z 36001KT 9999 FEW049 10/06 Q1021
EGPH 210720Z 33001KT 9999 SCT048 08/06 Q1022
EGPH 210650Z 34001KT CAVOK 07/07 Q1022
EGPH 210620Z 10001KT CAVOK 05/05 Q1022
EGPH 210550Z 00000KT CAVOK 04/03 Q1022
EGPH 210520Z 00000KT 2000 VCFG NSC 03/02 Q1022
EGPH 210450Z 00000KT 9000 NSC 03/03 Q1022
EGPH 210420Z 06002KT 9999 BKN047 04/03 Q1022
EGPH 210350Z 09001KT 9999 BKN047 04/03 Q1022
EGPH 210320Z VRB01KT CAVOK 05/04 Q1022
EGPH 210250Z VRB02KT CAVOK 06/04 Q1022
EGPH 210220Z 28004KT CAVOK 08/05 Q1023
EGPH 210150Z 30003KT CAVOK 07/05 Q1023
EGPH 210120Z 30003KT CAVOK 06/05 Q1023
EGPH 210050Z 31004KT CAVOK 06/05 Q1023
EGPH 210020Z 26005KT CAVOK 06/05 Q1023
EGPH 202350Z 25005KT CAVOK 06/04 Q1023
EGPH 202320Z 26004KT CAVOK 07/05 Q1023
EGPH 202250Z 26002KT CAVOK 07/05 Q1023
EGPH 202220Z 25006KT CAVOK 08/05 Q1023
EGPH 202150Z 24007KT CAVOK 07/05 Q1023
EGPH 202120Z 24005KT CAVOK 07/05 Q1023
EGPH 202050Z 22004KT CAVOK 08/05 Q1023
EGPH 202020Z 24007KT CAVOK 07/05 Q1023
EGPH 201950Z 26007KT CAVOK 11/06 Q1023
EGPH 201920Z 26008KT 9999 FEW035 12/06 Q1023
EGPH 201850Z 26007KT 240V310 9999 FEW032 12/06 Q1022
EGPH 201750Z 25011KT 9999 SCT045 14/06 Q1022
EGPH 201720Z 25012KT 9999 SCT045 14/05 Q1022
EGPH 201650Z 26011KT 9999 SCT045 15/05 Q1022
EGPH 201620Z 25012KT 9999 SCT047 15/05 Q1022
EGPH 201550Z 26012KT 9999 SCT042 15/05 Q1022
EGPH 201520Z 27010KT 240V300 9999 SCT043 15/05 Q1022